Time;durP1;ratioP1;P1;durP2;ratioP2;P2;SDS_P1;SDS_P2;PMS_P1;PMS_P2;Temp;Humidity;BMP_temperature;BMP_pressure;BME280_temperature;BME280_humidity;BME280_pressure;Samples;Min_cycle;Max_cycle;Signal;HPM_P1;HPM_P2
2022/12/03 00:00:42;;;;;;;76.97;26.13;;;;;;;;;;5048920;28;20170;-59
2022/12/03 00:03:08;;;;;;;77.43;24.53;;;5.40;99.90;;;;;;5040975;28;20229;-60
2022/12/03 00:05:33;;;;;;;72.50;25.00;;;5.60;99.90;;;;;;5053719;28;20248;-59
2022/12/03 00:07:59;;;;;;;67.50;25.87;;;5.60;99.90;;;;;;5053567;28;20186;-59
2022/12/03 00:10:25;;;;;;;63.93;22.73;;;5.70;99.90;;;;;;5042120;28;20170;-59
2022/12/03 00:12:50;;;;;;;71.77;23.90;;;5.70;99.90;;;;;;5053880;28;20242;-59
2022/12/03 00:15:16;;;;;;;70.93;24.27;;;5.80;99.90;;;;;;5045949;28;20185;-59
2022/12/03 00:17:41;;;;;;;63.43;22.73;;;5.90;99.90;;;;;;5026330;28;20680;-59
2022/12/03 00:20:08;;;;;;;68.13;23.57;;;5.80;99.90;;;;;;5033817;28;20176;-60
2022/12/03 00:22:34;;;;;;;61.27;22.47;;;5.70;99.90;;;;;;5033633;28;20196;-59
2022/12/03 00:24:59;;;;;;;57.63;21.93;;;5.70;99.90;;;;;;5033650;28;20648;-59
2022/12/03 00:27:25;;;;;;;54.30;20.10;;;5.80;99.90;;;;;;5041231;28;20176;-59
2022/12/03 00:29:50;;;;;;;51.50;20.43;;;5.80;99.90;;;;;;5053619;28;20921;-59
2022/12/03 00:32:16;;;;;;;57.70;20.43;;;6.20;99.90;;;;;;5035549;28;20263;-60
2022/12/03 00:34:42;;;;;;;44.57;18.10;;;5.70;99.90;;;;;;5052552;28;20291;-59
2022/12/03 00:37:07;;;;;;;57.70;19.90;;;6.20;99.90;;;;;;5047366;28;20516;-59
2022/12/03 00:39:33;;;;;;;53.03;19.00;;;5.70;99.90;;;;;;5043692;28;20224;-60
2022/12/03 00:41:58;;;;;;;46.03;18.17;;;5.90;99.90;;;;;;5021352;28;20663;-60
2022/12/03 00:44:24;;;;;;;50.13;17.80;;;5.90;99.90;;;;;;5053265;28;20218;-60
2022/12/03 00:46:51;;;;;;;49.40;17.47;;;6.00;99.90;;;;;;5051932;28;20664;-60
2022/12/03 00:49:16;;;;;;;47.77;16.60;;;5.90;99.90;;;;;;5053149;28;20182;-59
2022/12/03 00:51:42;;;;;;;41.93;17.43;;;5.80;99.90;;;;;;5051838;28;20667;-59
2022/12/03 00:54:08;;;;;;;46.87;17.20;;;;;;;;;;5053001;28;20177;-59
2022/12/03 00:56:34;;;;;;;49.87;17.57;;;6.00;99.90;;;;;;5051116;28;20181;-60
2022/12/03 00:58:59;;;;;;;46.33;17.87;;;5.80;99.90;;;;;;5037988;28;20284;-60
2022/12/03 01:01:25;;;;;;;46.73;17.27;;;6.10;99.90;;;;;;5036062;28;20318;-60
2022/12/03 01:03:50;;;;;;;46.67;18.27;;;5.60;99.90;;;;;;5050860;28;20225;-60
2022/12/03 01:06:16;;;;;;;45.93;18.20;;;6.10;99.90;;;;;;5050810;28;20188;-60
2022/12/03 01:08:41;;;;;;;47.37;18.73;;;5.90;99.90;;;;;;5052382;28;20220;-60
2022/12/03 01:11:36;;;;;;;45.23;18.13;;;5.80;99.90;;;;;;5050824;28;20234;-60
2022/12/03 01:13:53;;;;;;;40.07;17.30;;;5.90;99.90;;;;;;5048955;28;20189;-60
2022/12/03 01:16:18;;;;;;;45.30;17.40;;;5.80;99.90;;;;;;5039906;28;20185;-60
2022/12/03 01:18:45;;;;;;;51.80;18.80;;;;;;;;;;5032729;28;20170;-60
2022/12/03 01:21:11;;;;;;;50.37;18.17;;;5.70;99.90;;;;;;5032538;28;20185;-60
2022/12/03 01:23:36;;;;;;;51.63;17.80;;;5.90;99.90;;;;;;5032499;28;20205;-60
2022/12/03 01:26:02;;;;;;;54.20;18.47;;;5.00;99.90;;;;;;5032430;28;20727;-60
2022/12/03 01:28:28;;;;;;;52.27;17.60;;;5.80;99.90;;;;;;5044882;28;20177;-60
2022/12/03 01:33:38;;;;;;;48.27;18.53;;;6.80;99.90;;;;;;5052229;28;20249;-60
2022/12/03 01:36:03;;;;;;;46.47;18.00;;;6.00;99.90;;;;;;5052260;28;20680;-59
2022/12/03 01:38:29;;;;;;;43.37;17.67;;;6.00;99.90;;;;;;5052462;28;20177;-59
2022/12/03 01:40:55;;;;;;;44.63;17.50;;;6.10;99.90;;;;;;5051984;28;20173;-59
2022/12/03 01:43:20;;;;;;;43.53;16.37;;;5.70;99.90;;;;;;5050265;28;20268;-59
2022/12/03 01:45:46;;;;;;;49.47;17.43;;;5.80;99.90;;;;;;5051940;28;20177;-60
2022/12/03 01:48:15;;;;;;;46.33;18.40;;;5.80;99.90;;;;;;5051809;28;20173;-59
2022/12/03 01:50:42;;;;;;;44.57;16.90;;;5.90;99.90;;;;;;5051515;28;20196;-59
2022/12/03 01:53:10;;;;;;;39.87;16.23;;;5.90;99.90;;;;;;5051577;28;20260;-59
2022/12/03 01:55:36;;;;;;;41.40;16.63;;;5.60;99.90;;;;;;5048988;28;21487;-59
2022/12/03 01:58:03;;;;;;;42.10;16.90;;;6.00;99.90;;;;;;5037681;28;20198;-59
2022/12/03 02:00:29;;;;;;;37.57;15.80;;;5.70;99.90;;;;;;5046902;28;20174;-60
2022/12/03 02:03:06;;;;;;;46.23;16.73;;;6.00;99.90;;;;;;5031628;28;20194;-60
2022/12/03 02:05:32;;;;;;;40.23;16.47;;;6.10;99.90;;;;;;5048483;28;20189;-59
2022/12/03 02:07:59;;;;;;;34.97;16.17;;;6.00;99.90;;;;;;5042005;28;20692;-59
2022/12/03 02:10:31;;;;;;;45.03;16.47;;;6.20;99.90;;;;;;5049738;28;20183;-59
2022/12/03 02:13:05;;;;;;;40.20;15.60;;;6.10;99.90;;;;;;5051462;28;20176;-59
2022/12/03 02:15:31;;;;;;;37.60;15.13;;;6.00;99.90;;;;;;5051338;28;20173;-59
2022/12/03 02:17:56;;;;;;;36.17;13.77;;;5.90;99.90;;;;;;5051484;28;20636;-59
2022/12/03 02:20:22;;;;;;;29.07;12.87;;;6.20;99.90;;;;;;5051488;28;20173;-59
2022/12/03 02:23:10;;;;;;;29.37;11.87;;;5.90;99.90;;;;;;5051324;28;20208;-59
2022/12/03 02:25:37;;;;;;;29.23;12.00;;;6.00;99.90;;;;;;5051458;28;20270;-59
2022/12/03 02:28:04;;;;;;;21.00;10.63;;;5.90;99.90;;;;;;5045932;28;20173;-59
2022/12/03 02:30:31;;;;;;;23.40;10.70;;;6.10;99.90;;;;;;5031411;28;20255;-59
2022/12/03 02:32:57;;;;;;;25.20;10.50;;;5.90;99.90;;;;;;5031232;28;20608;-59
2022/12/03 02:35:29;;;;;;;30.03;11.50;;;6.10;99.90;;;;;;5031270;28;20174;-59
2022/12/03 02:38:16;;;;;;;26.53;10.60;;;6.10;99.90;;;;;;5031171;28;20182;-59
2022/12/03 02:40:44;;;;;;;23.63;9.87;;;6.10;99.90;;;;;;5031194;28;20184;-59
2022/12/03 02:43:13;;;;;;;20.83;9.90;;;6.30;99.90;;;;;;5038088;28;20205;-59
2022/12/03 02:45:42;;;;;;;26.77;10.10;;;6.00;99.90;;;;;;5050701;28;20181;-59
2022/12/03 02:48:15;;;;;;;24.03;9.37;;;6.20;99.90;;;;;;5050798;28;20173;-59
2022/12/03 02:50:43;;;;;;;19.33;8.77;;;6.50;99.90;;;;;;5050769;28;20196;-58
2022/12/03 02:53:16;;;;;;;23.43;8.83;;;6.50;99.90;;;;;;5049296;28;20193;-59
2022/12/03 02:55:42;;;;;;;18.10;8.40;;;6.30;99.90;;;;;;5050686;28;20169;-59
2022/12/03 02:58:09;;;;;;;17.23;7.90;;;6.20;99.90;;;;;;5034846;28;20177;-59
2022/12/03 03:00:36;;;;;;;17.47;7.93;;;6.20;99.90;;;;;;5035999;28;20181;-59
2022/12/03 03:03:05;;;;;;;15.50;8.13;;;6.40;99.90;;;;;;5025897;28;20205;-59
2022/12/03 03:05:32;;;;;;;19.90;7.87;;;6.40;99.90;;;;;;5049544;28;20177;-59
2022/12/03 03:07:58;;;;;;;17.37;7.80;;;6.20;99.90;;;;;;5046846;28;20187;-59
2022/12/03 03:10:25;;;;;;;16.73;7.43;;;6.30;99.90;;;;;;5047927;28;20185;-59
2022/12/03 03:12:53;;;;;;;16.10;7.67;;;6.30;99.90;;;;;;5047412;28;20177;-59
2022/12/03 03:15:20;;;;;;;14.67;7.77;;;6.40;99.90;;;;;;5039448;28;20169;-59
2022/12/03 03:17:45;;;;;;;18.33;7.67;;;6.50;99.90;;;;;;5050759;28;20165;-59
2022/12/03 03:20:12;;;;;;;20.20;7.77;;;6.10;99.90;;;;;;5035162;28;20184;-59
2022/12/03 03:22:40;;;;;;;16.13;7.60;;;6.20;99.90;;;;;;5030707;28;20235;-59
2022/12/03 03:25:11;;;;;;;21.20;8.57;;;6.20;99.90;;;;;;5030940;28;20204;-59
2022/12/03 03:27:39;;;;;;;17.40;8.57;;;6.10;99.90;;;;;;5030664;28;20534;-59
2022/12/03 03:30:05;;;;;;;21.43;8.40;;;6.40;99.90;;;;;;5030833;28;20165;-59
2022/12/03 03:32:32;;;;;;;21.60;7.90;;;6.30;99.90;;;;;;5047041;28;20221;-59
2022/12/03 03:34:57;;;;;;;16.03;8.07;;;6.10;99.90;;;;;;5050517;28;20164;-59
2022/12/03 03:37:24;;;;;;;18.50;7.77;;;6.30;99.90;;;;;;5050582;28;20165;-59
2022/12/03 03:39:50;;;;;;;20.17;8.57;;;6.20;99.90;;;;;;5050403;28;20177;-60
2022/12/03 03:42:16;;;;;;;19.87;8.07;;;;;;;;;;5050684;28;20239;-59
2022/12/03 03:44:42;;;;;;;19.57;8.80;;;6.30;99.90;;;;;;5050032;28;20616;-59
2022/12/03 03:47:07;;;;;;;19.70;8.80;;;6.40;99.90;;;;;;5049892;28;20242;-59
2022/12/03 03:49:33;;;;;;;24.87;8.97;;;6.20;99.90;;;;;;5050104;28;20213;-59
2022/12/03 03:51:59;;;;;;;20.07;8.97;;;6.00;99.90;;;;;;5017769;28;20177;-60
2022/12/03 03:54:25;;;;;;;22.67;9.73;;;6.10;99.90;;;;;;5049778;28;20251;-59
2022/12/03 03:56:51;;;;;;;23.77;8.50;;;;;;;;;;5041487;28;20460;-59
2022/12/03 03:59:17;;;;;;;20.00;9.73;;;6.30;99.90;;;;;;5046057;28;20307;-59
2022/12/03 04:01:44;;;;;;;24.03;9.97;;;6.50;99.90;;;;;;5039399;28;20173;-59
2022/12/03 04:04:19;;;;;;;27.00;10.37;;;6.10;99.90;;;;;;5048667;28;20675;-59
2022/12/03 04:06:45;;;;;;;26.13;10.03;;;6.40;99.90;;;;;;5047895;28;20223;-59
2022/12/03 04:09:11;;;;;;;25.87;10.40;;;6.00;99.90;;;;;;5049815;28;20182;-59
2022/12/03 04:14:21;;;;;;;23.10;9.80;;;6.10;99.90;;;;;;5039277;28;20701;-59
2022/12/03 04:16:46;;;;;;;26.90;10.20;;;6.10;99.90;;;;;;5031934;28;20185;-59
2022/12/03 04:19:12;;;;;;;24.97;11.10;;;6.30;99.90;;;;;;5049954;28;20169;-59
2022/12/03 04:24:22;;;;;;;23.80;10.57;;;6.20;99.90;;;;;;5053542;28;20308;-59
2022/12/03 04:29:31;;;;;;;24.63;9.87;;;6.20;99.90;;;;;;5044595;28;20239;-59
2022/12/03 04:37:25;;;;;;;27.67;11.00;;;6.20;99.90;;;;;;5053374;28;20229;-58
2022/12/03 04:39:51;;;;;;;31.83;10.03;;;6.30;99.90;;;;;;5053208;28;20189;-59
2022/12/03 04:42:17;;;;;;;28.60;11.20;;;;;;;;;;5053256;28;20181;-58
2022/12/03 04:44:43;;;;;;;20.40;9.27;;;;;;;;;;5052808;28;20667;-59
2022/12/03 04:47:12;;;;;;;20.43;10.33;;;6.40;99.90;;;;;;5053265;28;20245;-59
2022/12/03 04:49:43;;;;;;;23.83;10.00;;;6.10;99.90;;;;;;5052776;28;20660;-59
2022/12/03 04:52:11;;;;;;;22.47;9.77;;;6.20;99.90;;;;;;5032256;28;20335;-59
2022/12/03 04:54:37;;;;;;;21.37;9.50;;;6.20;99.90;;;;;;5033122;28;20188;-59
2022/12/03 04:57:04;;;;;;;24.43;9.40;;;6.30;99.90;;;;;;5047325;28;20528;-58
2022/12/03 04:59:30;;;;;;;23.30;10.07;;;6.20;99.90;;;;;;5047540;28;20185;-58
2022/12/03 05:01:56;;;;;;;25.20;9.83;;;6.30;99.90;;;;;;5052203;28;20179;-59
2022/12/03 05:04:22;;;;;;;23.00;9.83;;;;;;;;;;5051947;28;20209;-58
2022/12/03 05:06:48;;;;;;;29.87;10.63;;;6.20;99.90;;;;;;5041740;28;20173;-58
2022/12/03 05:09:13;;;;;;;23.87;10.13;;;5.90;99.90;;;;;;5052759;28;20584;-58
2022/12/03 05:11:40;;;;;;;27.47;10.37;;;6.20;99.90;;;;;;5040483;28;20867;-58
2022/12/03 05:14:06;;;;;;;27.23;11.10;;;6.20;99.90;;;;;;5032814;28;20223;-58
2022/12/03 05:16:32;;;;;;;27.70;11.13;;;5.90;99.90;;;;;;5032780;28;20269;-58
2022/12/03 05:18:57;;;;;;;25.47;9.53;;;6.20;99.90;;;;;;5032566;28;20170;-59
2022/12/03 05:21:23;;;;;;;26.30;10.77;;;6.20;99.90;;;;;;5032683;28;20664;-58
2022/12/03 05:23:49;;;;;;;27.10;10.83;;;6.20;99.90;;;;;;5044544;28;20212;-58
2022/12/03 05:26:14;;;;;;;23.63;10.20;;;6.50;99.90;;;;;;5052568;28;20176;-58
2022/12/03 05:28:40;;;;;;;27.20;9.93;;;6.30;99.90;;;;;;5052474;28;20181;-58
2022/12/03 05:31:06;;;;;;;23.60;10.77;;;5.90;99.90;;;;;;5052103;28;20181;-58
2022/12/03 05:33:31;;;;;;;23.00;10.20;;;5.80;99.90;;;;;;5051885;28;20229;-58
2022/12/03 05:35:57;;;;;;;23.00;10.77;;;5.90;99.90;;;;;;5051282;28;20257;-58
2022/12/03 05:38:23;;;;;;;21.93;10.63;;;6.00;99.90;;;;;;5052213;28;20177;-58
2022/12/03 05:40:48;;;;;;;28.87;11.67;;;6.70;99.90;;;;;;5037314;28;20178;-58
2022/12/03 05:43:14;;;;;;;32.10;11.50;;;5.90;99.90;;;;;;5032308;28;20193;-58
2022/12/03 05:45:42;;;;;;;26.33;11.17;;;6.30;99.90;;;;;;5032204;28;20185;-58
2022/12/03 05:48:13;;;;;;;26.07;11.00;;;6.10;99.90;;;;;;5024388;28;20704;-58
2022/12/03 05:50:42;;;;;;;28.60;11.27;;;5.90;99.90;;;;;;5032234;28;20192;-58
2022/12/03 05:53:08;;;;;;;24.70;11.07;;;6.20;99.90;;;;;;5050608;28;20203;-58
2022/12/03 05:55:34;;;;;;;28.53;11.20;;;5.90;99.90;;;;;;5043973;28;20178;-58
2022/12/03 05:57:59;;;;;;;29.53;11.37;;;6.10;99.90;;;;;;5043670;28;20177;-58
2022/12/03 06:00:27;;;;;;;32.30;11.63;;;6.20;99.90;;;;;;5051274;28;20258;-60
2022/12/03 06:02:53;;;;;;;27.70;11.50;;;5.80;99.90;;;;;;5051431;28;20274;-58
2022/12/03 06:05:20;;;;;;;28.13;11.67;;;6.30;99.90;;;;;;5049251;28;20185;-58
2022/12/03 06:07:47;;;;;;;35.03;11.00;;;6.00;99.90;;;;;;5050194;28;20647;-58
2022/12/03 06:10:17;;;;;;;23.83;10.37;;;6.20;99.90;;;;;;5050134;28;20177;-58
2022/12/03 06:12:43;;;;;;;26.37;11.23;;;6.30;99.90;;;;;;5051198;28;20247;-58
2022/12/03 06:15:10;;;;;;;22.37;9.87;;;6.00;99.90;;;;;;5051373;28;20176;-58
2022/12/03 06:17:36;;;;;;;24.93;10.83;;;5.90;99.90;;;;;;5051560;28;20175;-58
2022/12/03 06:20:02;;;;;;;30.17;10.53;;;6.30;99.90;;;;;;5046459;28;20181;-58
2022/12/03 06:22:28;;;;;;;23.93;10.23;;;6.20;99.90;;;;;;5035451;28;20675;-59
2022/12/03 06:24:53;;;;;;;30.43;10.47;;;6.20;99.90;;;;;;5051074;28;20213;-59
2022/12/03 06:27:19;;;;;;;21.60;9.53;;;6.20;99.90;;;;;;5049876;28;20287;-59
2022/12/03 06:29:44;;;;;;;23.57;9.70;;;6.20;99.90;;;;;;5051072;28;20651;-59
2022/12/03 06:32:10;;;;;;;25.20;9.40;;;6.30;99.90;;;;;;5048098;28;20217;-59
2022/12/03 06:34:36;;;;;;;27.03;9.07;;;6.30;99.90;;;;;;5036177;28;20176;-59
2022/12/03 06:37:02;;;;;;;27.03;9.47;;;6.00;99.90;;;;;;5041045;28;20299;-58
2022/12/03 06:39:27;;;;;;;26.50;9.53;;;6.60;99.90;;;;;;5043784;28;20226;-58
2022/12/03 06:41:53;;;;;;;23.57;10.10;;;6.30;99.90;;;;;;5043385;28;20269;-59
2022/12/03 06:44:18;;;;;;;22.43;9.07;;;6.30;99.90;;;;;;5022508;28;20217;-58
2022/12/03 06:46:44;;;;;;;18.13;8.33;;;6.00;99.90;;;;;;5036193;28;20184;-58
2022/12/03 06:49:10;;;;;;;20.57;9.10;;;6.10;99.90;;;;;;5050414;28;20682;-58
2022/12/03 06:51:36;;;;;;;23.67;9.27;;;6.30;99.90;;;;;;5050549;28;20533;-58
2022/12/03 06:54:02;;;;;;;24.70;9.27;;;6.20;99.90;;;;;;5050585;28;20181;-58
2022/12/03 06:56:28;;;;;;;22.40;8.03;;;6.20;99.90;;;;;;5050427;28;20181;-58
2022/12/03 06:58:54;;;;;;;18.73;7.63;;;6.20;99.90;;;;;;5049790;28;20644;-59
2022/12/03 07:01:20;;;;;;;19.03;7.97;;;6.20;99.90;;;;;;5035488;28;20232;-58
2022/12/03 07:03:46;;;;;;;15.27;7.10;;;6.30;99.90;;;;;;5027921;28;20600;-59
2022/12/03 07:06:11;;;;;;;17.93;6.07;;;6.10;99.90;;;;;;5038042;28;20209;-59
2022/12/03 07:08:37;;;;;;;15.30;5.60;;;5.80;99.90;;;;;;5050823;28;20268;-59
2022/12/03 07:11:03;;;;;;;16.87;5.60;;;5.80;99.90;;;;;;5041624;28;20189;-59
2022/12/03 07:13:29;;;;;;;16.90;5.00;;;6.10;99.90;;;;;;5030862;28;20173;-59
2022/12/03 07:15:55;;;;;;;10.20;4.53;;;;;;;;;;5046719;28;20208;-59
2022/12/03 07:18:20;;;;;;;13.97;4.90;;;6.00;99.90;;;;;;5045366;28;20172;-58
2022/12/03 07:20:46;;;;;;;9.53;4.33;;;6.00;99.90;;;;;;5030708;28;20177;-60
2022/12/03 07:23:11;;;;;;;12.20;4.47;;;6.10;99.90;;;;;;5040939;28;20211;-59
2022/12/03 07:25:37;;;;;;;10.27;4.63;;;6.10;99.90;;;;;;5050562;28;20187;-60
2022/12/03 07:28:03;;;;;;;11.67;4.40;;;6.20;99.90;;;;;;5032967;28;20248;-60
2022/12/03 07:30:28;;;;;;;15.47;4.63;;;6.00;99.90;;;;;;5032699;28;20178;-59
2022/12/03 07:32:54;;;;;;;10.53;4.30;;;6.20;99.90;;;;;;5050407;28;20312;-59
2022/12/03 07:35:20;;;;;;;14.07;4.80;;;6.20;99.90;;;;;;5040381;28;20585;-59
2022/12/03 07:37:46;;;;;;;16.37;4.93;;;;;;;;;;5024156;28;20249;-60
2022/12/03 07:40:12;;;;;;;14.43;4.60;;;6.10;99.90;;;;;;5029398;28;20181;-60
2022/12/03 07:42:38;;;;;;;12.33;4.47;;;6.30;99.90;;;;;;5030408;28;20640;-60
2022/12/03 07:45:04;;;;;;;11.10;4.43;;;;;;;;;;5030401;28;20189;-60
2022/12/03 07:47:30;;;;;;;11.47;5.00;;;6.00;99.90;;;;;;5030473;28;20181;-59
2022/12/03 07:49:56;;;;;;;13.13;4.60;;;6.10;99.90;;;;;;5030450;28;20174;-60
2022/12/03 07:52:21;;;;;;;13.77;4.73;;;6.00;99.90;;;;;;5030528;28;20180;-59
2022/12/03 07:54:47;;;;;;;11.47;4.90;;;6.20;99.90;;;;;;5041869;28;20528;-60
2022/12/03 07:57:12;;;;;;;16.30;5.60;;;6.20;99.90;;;;;;5053178;28;20177;-59
2022/12/03 07:59:38;;;;;;;11.53;4.70;;;;;;;;;;5045140;28;20260;-59
2022/12/03 08:02:04;;;;;;;12.77;5.27;;;6.10;99.90;;;;;;5043726;28;20181;-59
2022/12/03 08:04:29;;;;;;;14.83;4.87;;;6.10;99.90;;;;;;5053009;28;20263;-60
2022/12/03 08:06:55;;;;;;;15.87;4.87;;;6.10;99.90;;;;;;5047180;28;20670;-58
2022/12/03 08:09:21;;;;;;;12.43;4.40;;;6.10;99.90;;;;;;5041646;28;20197;-58
2022/12/03 08:11:47;;;;;;;12.80;5.00;;;6.20;99.90;;;;;;5048883;28;20184;-57
2022/12/03 08:14:18;;;;;;;9.13;4.43;;;6.10;99.90;;;;;;5046599;28;20189;-59
2022/12/03 08:16:45;;;;;;;12.00;4.77;;;5.80;99.90;;;;;;5052936;28;20173;-58
2022/12/03 08:19:15;;;;;;;9.13;4.50;;;6.30;99.90;;;;;;5045259;28;20196;-59
2022/12/03 08:21:41;;;;;;;11.30;4.40;;;6.20;99.90;;;;;;5050365;28;20176;-59
2022/12/03 08:24:19;;;;;;;9.97;4.40;;;6.30;99.90;;;;;;5053170;28;20217;-60
2022/12/03 08:26:46;;;;;;;10.27;4.50;;;6.20;99.90;;;;;;5053923;28;20939;-59
2022/12/03 08:29:15;;;;;;;9.53;3.90;;;6.00;99.90;;;;;;5053786;28;20205;-60
2022/12/03 08:31:41;;;;;;;13.30;4.83;;;6.20;99.90;;;;;;5051668;28;20282;-59
2022/12/03 08:34:26;;;;;;;14.63;5.03;;;6.30;99.90;;;;;;5051253;28;20184;-60
2022/12/03 08:36:58;;;;;;;14.70;4.83;;;6.20;99.90;;;;;;5036936;28;20202;-59
2022/12/03 08:39:39;;;;;;;10.23;4.37;;;5.60;99.90;;;;;;5025478;28;20177;-60
2022/12/03 08:45:25;;;;;;;17.43;5.00;;;6.40;99.90;;;;;;5052715;28;20200;-59
2022/12/03 08:47:51;;;;;;;12.10;5.13;;;6.30;99.90;;;;;;5053129;28;20608;-58
2022/12/03 08:50:40;;;;;;;12.50;4.80;;;6.50;99.90;;;;;;5053097;28;20173;-59
2022/12/03 08:53:12;;;;;;;18.97;5.60;;;6.20;99.90;;;;;;5052251;28;20177;-58
2022/12/03 08:55:51;;;;;;;12.87;4.67;;;6.30;99.90;;;;;;5033258;28;20177;-59
2022/12/03 08:58:22;;;;;;;12.53;5.37;;;7.00;99.90;;;;;;5033070;28;20200;-59
2022/12/03 09:00:55;;;;;;;17.20;5.23;;;6.50;99.90;;;;;;5033248;28;20170;-58
2022/12/03 09:03:21;;;;;;;19.30;5.63;;;6.40;99.90;;;;;;5032937;28;20256;-59
2022/12/03 09:05:46;;;;;;;15.20;5.50;;;6.30;99.90;;;;;;5032751;28;20177;-58
2022/12/03 09:08:12;;;;;;;12.80;5.30;;;6.40;99.90;;;;;;5032170;28;20197;-60
2022/12/03 09:10:38;;;;;;;14.73;5.97;;;5.10;99.90;;;;;;5041540;28;20658;-60
2022/12/03 09:13:04;;;;;;;15.77;6.27;;;;;;;;;;5052148;28;21666;-60
2022/12/03 09:15:29;;;;;;;11.87;6.17;;;6.40;99.90;;;;;;5031638;28;20162;-60
2022/12/03 09:17:55;;;;;;;14.30;6.10;;;6.50;99.90;;;;;;5052689;28;20196;-61
2022/12/03 09:20:20;;;;;;;15.87;5.70;;;6.40;99.90;;;;;;5052378;28;20170;-60
2022/12/03 09:22:46;;;;;;;21.83;5.77;;;6.40;99.90;;;;;;5032879;28;20184;-60
2022/12/03 09:25:12;;;;;;;16.07;6.13;;;6.30;99.90;;;;;;5051961;28;20267;-60
2022/12/03 09:27:37;;;;;;;13.33;6.30;;;6.10;99.90;;;;;;5035407;28;20260;-60
2022/12/03 09:30:04;;;;;;;14.70;5.80;;;6.50;99.90;;;;;;5030383;28;20185;-60
2022/12/03 09:32:30;;;;;;;19.23;6.30;;;6.70;99.90;;;;;;5049485;28;20706;-60
2022/12/03 09:34:56;;;;;;;13.33;5.77;;;6.90;99.90;;;;;;5039313;28;20181;-59
2022/12/03 09:37:22;;;;;;;23.10;6.87;;;7.50;99.90;;;;;;5038999;28;20276;-59
2022/12/03 09:39:47;;;;;;;16.70;6.43;;;6.40;99.90;;;;;;5047053;28;20195;-59
2022/12/03 09:42:14;;;;;;;18.63;6.30;;;7.00;99.90;;;;;;5049043;28;20177;-60
2022/12/03 09:44:39;;;;;;;12.90;6.00;;;6.70;99.90;;;;;;5039432;28;20212;-59
2022/12/03 09:47:06;;;;;;;14.67;6.17;;;6.70;99.90;;;;;;5051135;28;20191;-60
2022/12/03 09:49:34;;;;;;;13.17;5.80;;;6.60;99.90;;;;;;5052020;28;20181;-59
2022/12/03 09:52:01;;;;;;;19.60;6.53;;;6.80;99.90;;;;;;5051964;28;20260;-59
2022/12/03 09:54:29;;;;;;;13.73;6.33;;;6.90;99.90;;;;;;5052190;28;20248;-58
2022/12/03 09:56:57;;;;;;;16.00;6.63;;;7.20;99.90;;;;;;5051871;28;20176;-59
2022/12/03 09:59:27;;;;;;;15.80;6.50;;;7.70;99.90;;;;;;5050255;28;20173;-59
2022/12/03 10:01:53;;;;;;;18.43;6.53;;;7.20;99.90;;;;;;5035546;28;20193;-58
2022/12/03 10:04:19;;;;;;;16.60;6.63;;;8.00;99.90;;;;;;5031442;28;20209;-58
2022/12/03 10:06:45;;;;;;;18.77;6.10;;;;;;;;;;5047128;28;20169;-58
2022/12/03 10:09:13;;;;;;;14.37;6.30;;;7.10;99.90;;;;;;5051637;28;20181;-57
2022/12/03 10:11:39;;;;;;;16.33;6.63;;;7.10;99.90;;;;;;5051081;28;20247;-57
2022/12/03 10:14:05;;;;;;;23.03;6.67;;;6.50;99.90;;;;;;5051467;28;20667;-56
2022/12/03 10:16:32;;;;;;;16.50;6.60;;;7.10;99.90;;;;;;5051030;28;20294;-57
2022/12/03 10:18:59;;;;;;;23.70;6.77;;;7.60;99.90;;;;;;5034851;28;20648;-57
2022/12/03 10:21:36;;;;;;;16.07;6.33;;;6.90;99.90;;;;;;5033431;28;20238;-57
2022/12/03 10:24:25;;;;;;;20.07;6.13;;;6.90;99.90;;;;;;5044063;28;20277;-57
2022/12/03 10:26:54;;;;;;;20.57;6.20;;;6.80;99.90;;;;;;5029098;28;20183;-57
2022/12/03 10:29:23;;;;;;;13.87;5.67;;;7.60;99.90;;;;;;5048474;28;20286;-56
2022/12/03 10:31:59;;;;;;;19.63;6.33;;;6.70;99.90;;;;;;5050898;28;20228;-57
2022/12/03 10:34:29;;;;;;;13.83;5.60;;;6.70;99.90;;;;;;5051239;28;20169;-57
2022/12/03 10:37:12;;;;;;;15.87;5.90;;;6.50;99.90;;;;;;5050979;28;20624;-57
2022/12/03 10:39:58;;;;;;;16.47;6.20;;;6.80;99.90;;;;;;5051048;28;20208;-58
2022/12/03 10:42:27;;;;;;;17.53;6.30;;;7.00;99.90;;;;;;5051067;28;20674;-58
2022/12/03 10:45:20;;;;;;;15.50;6.27;;;6.90;99.90;;;;;;5051004;28;20205;-57
2022/12/03 10:48:12;;;;;;;17.23;6.37;;;6.70;99.90;;;;;;5051032;28;20260;-58
2022/12/03 10:50:56;;;;;;;17.03;6.37;;;6.70;99.90;;;;;;5045627;28;20181;-58
2022/12/03 10:53:30;;;;;;;22.87;6.93;;;6.70;99.90;;;;;;5050409;28;20185;-58
2022/12/03 10:55:59;;;;;;;18.02;7.43;;;6.50;99.90;;;;;;5049972;28;20405;-60
2022/12/03 10:58:30;;;;;;;15.03;6.23;;;6.40;99.90;;;;;;5049688;28;20242;-58
2022/12/03 11:00:57;;;;;;;22.40;7.13;;;6.60;99.90;;;;;;5045015;28;20255;-58
2022/12/03 11:03:28;;;;;;;20.97;7.13;;;6.70;99.90;;;;;;5039252;28;20567;-58
2022/12/03 11:05:55;;;;;;;18.70;6.43;;;6.80;99.90;;;;;;5050997;28;20183;-58
2022/12/03 11:08:31;;;;;;;24.00;6.97;;;6.90;99.90;;;;;;5049611;28;20640;-58
2022/12/03 11:11:01;;;;;;;24.93;7.27;;;6.80;99.90;;;;;;5033439;28;20236;-58
2022/12/03 11:13:32;;;;;;;19.83;6.60;;;6.70;99.90;;;;;;5038355;28;20535;-58
2022/12/03 11:16:03;;;;;;;15.93;5.50;;;7.00;99.90;;;;;;5041316;28;20640;-59
2022/12/03 11:18:37;;;;;;;15.97;6.60;;;6.80;99.90;;;;;;5050173;28;20177;-58
2022/12/03 11:21:05;;;;;;;16.60;5.77;;;6.90;99.90;;;;;;5049439;28;20173;-58
2022/12/03 11:23:45;;;;;;;13.53;6.77;;;7.00;99.90;;;;;;5047519;28;20205;-59
2022/12/03 11:26:15;;;;;;;14.20;5.87;;;7.90;99.90;;;;;;5041636;28;20188;-58
2022/12/03 11:28:44;;;;;;;15.33;6.17;;;7.40;99.90;;;;;;5039813;28;20201;-59
2022/12/03 11:31:32;;;;;;;14.40;6.07;;;7.00;99.90;;;;;;5053796;28;20666;-58
2022/12/03 11:34:17;;;;;;;21.70;5.83;;;7.30;99.90;;;;;;5053166;28;20189;-58
2022/12/03 11:37:10;;;;;;;19.07;6.07;;;7.10;99.90;;;;;;5054046;28;20203;-59
2022/12/03 11:39:51;;;;;;;16.23;6.00;;;7.10;99.90;;;;;;5034658;28;20174;-58
2022/12/03 11:42:25;;;;;;;13.77;6.10;;;7.10;99.90;;;;;;5046481;28;20169;-58
2022/12/03 11:45:26;;;;;;;12.23;5.40;;;6.90;99.90;;;;;;5043488;28;20674;-58
2022/12/03 11:47:58;;;;;;;14.43;5.87;;;7.10;99.90;;;;;;5034369;28;20200;-56
2022/12/03 11:50:32;;;;;;;16.53;6.30;;;7.00;99.90;;;;;;5039157;28;20223;-57
2022/12/03 11:53:17;;;;;;;14.80;5.83;;;7.10;99.90;;;;;;5044545;28;20200;-57
2022/12/03 11:55:57;;;;;;;17.20;5.67;;;7.20;99.90;;;;;;5039762;28;20264;-57
2022/12/03 11:58:27;;;;;;;10.73;5.27;;;6.70;99.90;;;;;;5052779;28;20185;-58
2022/12/03 12:00:58;;;;;;;17.27;6.27;;;7.10;99.90;;;;;;5042415;28;20180;-59
2022/12/03 12:03:29;;;;;;;16.97;6.33;;;6.80;99.90;;;;;;5036695;28;20256;-58
2022/12/03 12:06:03;;;;;;;13.73;5.77;;;7.10;99.90;;;;;;5049015;28;20185;-58
2022/12/03 12:08:29;;;;;;;14.63;5.83;;;7.00;99.90;;;;;;5051765;28;20702;-58
2022/12/03 12:10:55;;;;;;;13.67;5.60;;;7.00;99.90;;;;;;5035885;28;20213;-56
2022/12/03 12:13:47;;;;;;;15.23;5.70;;;7.30;99.90;;;;;;5053816;28;20259;-59
2022/12/03 12:16:36;;;;;;;11.17;5.80;;;7.00;99.90;;;;;;5050824;28;20204;-59
2022/12/03 12:19:31;;;;;;;13.77;4.97;;;7.10;99.90;;;;;;5045893;28;20209;-58
2022/12/03 12:22:19;;;;;;;14.50;5.47;;;7.30;99.90;;;;;;5035338;28;20182;-58
2022/12/03 12:24:52;;;;;;;15.00;5.50;;;7.30;99.90;;;;;;5047272;28;20756;-58
2022/12/03 12:27:19;;;;;;;15.37;5.27;;;;;;;;;;5048249;28;20181;-58
2022/12/03 12:29:53;;;;;;;12.23;5.33;;;7.50;99.90;;;;;;5051643;28;20178;-60
2022/12/03 12:32:32;;;;;;;12.67;5.10;;;7.10;99.90;;;;;;5053101;28;20755;-60
2022/12/03 12:35:24;;;;;;;16.60;6.00;;;7.20;99.90;;;;;;5045605;28;20578;-60
2022/12/03 12:37:55;;;;;;;13.30;5.20;;;7.30;99.90;;;;;;5053081;28;20278;-60
2022/12/03 12:40:26;;;;;;;11.33;5.50;;;7.10;99.90;;;;;;5051392;28;20240;-60
2022/12/03 12:43:12;;;;;;;19.13;5.13;;;7.30;99.90;;;;;;5049636;28;20268;-61
2022/12/03 12:45:41;;;;;;;17.77;5.30;;;7.10;99.90;;;;;;5049807;28;20246;-59
2022/12/03 12:48:29;;;;;;;14.50;5.20;;;7.10;99.90;;;;;;5049574;28;20267;-59
2022/12/03 12:51:08;;;;;;;10.73;5.53;;;7.40;99.90;;;;;;5049284;28;20192;-59
2022/12/03 12:53:36;;;;;;;18.30;5.90;;;7.20;99.90;;;;;;5050169;28;20636;-59
2022/12/03 12:56:24;;;;;;;18.10;5.30;;;7.40;99.90;;;;;;5051092;28;20181;-59
2022/12/03 12:58:50;;;;;;;13.77;5.57;;;7.30;99.90;;;;;;5051181;28;20173;-59
2022/12/03 13:01:28;;;;;;;12.17;4.90;;;7.30;99.90;;;;;;5051583;28;20181;-59
2022/12/03 13:03:54;;;;;;;11.30;4.93;;;7.90;99.90;;;;;;5052477;28;20261;-59
2022/12/03 13:06:28;;;;;;;11.63;4.87;;;7.70;99.90;;;;;;5053127;28;20173;-59
2022/12/03 13:08:55;;;;;;;10.27;4.57;;;7.60;99.90;;;;;;5052884;28;20650;-59
2022/12/03 13:11:24;;;;;;;13.30;5.03;;;7.60;99.90;;;;;;5052855;28;20184;-60
2022/12/03 13:13:51;;;;;;;11.70;4.87;;;7.80;99.90;;;;;;5052559;28;20175;-59
2022/12/03 13:16:21;;;;;;;10.97;4.27;;;8.20;99.90;;;;;;5052783;28;20176;-59